Time;durP1;ratioP1;P1;durP2;ratioP2;P2;SDS_P1;SDS_P2;PMS_P1;PMS_P2;Temp;Humidity;BMP_temperature;BMP_pressure;BME280_temperature;BME280_humidity;BME280_pressure;Samples;Min_cycle;Max_cycle;Signal;HPM_P1;HPM_P2
2022/03/04 00:00:34;;;;;;;12.48;8.52;;;;;;;-0.37;71.98;101093.72;5054857;28;20051;-59
2022/03/04 00:03:38;;;;;;;11.68;8.60;;;;;;;-0.42;72.51;101095.41;5054183;28;20067;-59
2022/03/04 00:06:41;;;;;;;13.02;8.73;;;;;;;-0.44;72.51;101099.72;5054037;28;20414;-59
2022/03/04 00:09:45;;;;;;;13.82;9.63;;;;;;;-0.53;72.47;101092.84;5053883;28;20052;-59
2022/03/04 00:12:48;;;;;;;14.05;9.50;;;;;;;-0.53;72.32;101103.13;5054535;28;20186;-59
2022/03/04 00:15:52;;;;;;;12.63;9.18;;;;;;;-0.72;72.73;101106.50;5054290;28;20052;-59
2022/03/04 00:19:08;;;;;;;14.00;9.10;;;;;;;-0.73;73.09;101105.63;5054226;28;20047;-59
2022/03/04 00:22:14;;;;;;;13.88;8.98;;;;;;;-0.70;72.24;101102.22;5034654;28;20111;-59
2022/03/04 00:25:18;;;;;;;12.88;9.18;;;;;;;-0.71;72.54;101097.91;5033828;28;20100;-59
2022/03/04 00:28:21;;;;;;;14.52;9.30;;;;;;;-0.74;72.18;101105.63;5034244;28;20046;-59
2022/03/04 00:31:26;;;;;;;12.30;8.55;;;;;;;-0.77;72.57;101111.59;5034287;28;20075;-59
2022/03/04 00:34:29;;;;;;;12.45;8.77;;;;;;;-0.81;72.57;101112.44;5045293;28;20099;-59
2022/03/04 00:37:33;;;;;;;13.27;8.25;;;;;;;-0.85;72.34;101110.72;5033270;28;20416;-59
2022/03/04 00:40:36;;;;;;;11.80;8.48;;;;;;;-0.91;73.32;101105.56;5054564;28;20099;-59
2022/03/04 00:43:39;;;;;;;;;;;;;;;-0.93;72.99;101109.81;5054623;28;20522;-59
2022/03/04 00:46:42;;;;;;;12.48;8.45;;;;;;;-0.86;72.69;101105.56;5064590;28;20016;-59
2022/03/04 00:49:46;;;;;;;16.45;10.05;;;;;;;-0.84;72.51;101109.84;5054197;28;20047;-59
2022/03/04 00:52:49;;;;;;;13.45;8.73;;;;;;;-0.84;72.52;101106.44;5053708;28;20048;-59
2022/03/04 00:55:52;;;;;;;;;;;;;;;-0.85;71.87;101103.03;4702588;28;10000077;-59
2022/03/04 00:58:56;;;;;;;13.43;9.43;;;;;;;-0.94;72.36;101110.69;5050264;28;20012;-59
2022/03/04 01:01:59;;;;;;;12.75;8.75;;;;;;;-1.04;72.94;101111.50;5050062;28;20433;-59
2022/03/04 01:05:03;;;;;;;12.32;9.10;;;;;;;-0.97;72.90;101110.66;5049344;28;20075;-59
2022/03/04 01:08:07;;;;;;;16.20;9.27;;;;;;;-0.97;72.65;101106.38;5049528;28;20074;-59
2022/03/04 01:11:10;;;;;;;12.38;8.70;;;;;;;-0.98;72.72;101096.97;5048036;28;20542;-59
2022/03/04 01:14:13;;;;;;;12.77;9.40;;;;;;;-1.14;72.84;101096.91;5049642;28;20308;-59
2022/03/04 01:17:16;;;;;;;13.43;8.93;;;;;;;-1.15;72.74;101101.16;5050092;28;20059;-59
2022/03/04 01:20:20;;;;;;;;;;;;;;;-1.03;73.12;101102.94;5049702;28;20110;-59
2022/03/04 01:23:23;;;;;;;12.55;9.05;;;;;;;-1.08;72.87;101097.78;5049447;28;19923;-59
2022/03/04 01:26:27;;;;;;;12.00;8.73;;;;;;;-1.10;72.43;101103.75;5049547;28;20128;-59
2022/03/04 01:29:30;;;;;;;12.05;8.85;;;;;;;-1.05;71.28;101096.97;5049650;28;20051;-59
2022/03/04 01:32:34;;;;;;;12.90;9.57;;;;;;;-1.05;71.48;101095.25;5049137;28;20182;-59
2022/03/04 01:35:37;;;;;;;;;;;;;;;-1.03;71.91;101102.94;5049900;28;20051;-59
2022/03/04 01:38:41;;;;;;;15.57;9.43;;;;;;;-1.12;72.08;101101.19;5049272;28;19920;-59
2022/03/04 01:41:44;;;;;;;13.50;9.20;;;;;;;-1.10;71.98;101090.94;5049280;28;20052;-59
2022/03/04 01:44:48;;;;;;;13.93;8.73;;;;;;;-1.17;72.13;101098.59;5047589;28;20043;-59
2022/03/04 01:47:51;;;;;;;13.15;9.77;;;;;;;-1.14;72.44;101099.47;5048974;28;20047;-59
2022/03/04 01:50:54;;;;;;;13.98;9.55;;;;;;;-1.31;72.84;101097.69;5049199;28;20114;-59
2022/03/04 01:53:58;;;;;;;12.55;9.45;;;;;;;-1.36;72.69;101094.22;5048925;28;20214;-59
2022/03/04 01:57:02;;;;;;;12.45;8.55;;;;;;;-1.32;72.92;101098.50;5033442;28;20430;-59
2022/03/04 02:00:08;;;;;;;13.55;9.18;;;;;;;-1.34;72.45;101099.34;5029046;28;20056;-59
2022/03/04 02:03:15;;;;;;;13.45;9.35;;;;;;;-1.38;72.46;101105.31;5039836;28;20072;-59
2022/03/04 02:06:19;;;;;;;13.90;9.13;;;;;;;-1.38;72.83;101105.31;5028986;28;20427;-59
2022/03/04 02:09:22;;;;;;;;;;;;;;;-1.36;73.16;101103.63;5035642;28;20048;-59
2022/03/04 02:12:27;;;;;;;12.98;8.38;;;;;;;-1.39;73.50;101096.78;5049599;28;19919;-59
2022/03/04 02:15:31;;;;;;;12.57;9.45;;;;;;;-1.42;73.25;101104.44;5051203;28;20095;-59
2022/03/04 02:18:34;;;;;;;13.45;9.75;;;;;;;-1.57;73.38;101100.06;5052209;28;20456;-59
2022/03/04 02:22:01;;;;;;;17.02;10.57;;;;;;;-1.62;73.91;101109.47;5074185;28;20533;-59
2022/03/04 02:25:05;;;;;;;13.75;9.32;;;;;;;-1.57;73.71;101106.91;5052186;28;20187;-59
2022/03/04 02:28:09;;;;;;;12.98;8.68;;;;;;;-1.54;73.73;101107.78;5052242;28;20124;-59
2022/03/04 02:31:20;;;;;;;13.45;9.48;;;;;;;-1.54;74.02;101106.94;5063080;28;20106;-59
2022/03/04 02:34:24;;;;;;;15.15;9.02;;;;;;;-1.49;72.27;101111.25;5051747;28;20126;-59
2022/03/04 02:37:28;;;;;;;12.57;9.20;;;;;;;-1.57;72.98;101106.91;5051897;28;20103;-59
2022/03/04 02:45:24;;;;;;;13.80;10.10;;;;;;;-1.61;73.29;101097.50;5028625;28;20319;-59
2022/03/04 02:48:27;;;;;;;12.80;8.82;;;;;;;-1.58;73.40;101093.22;5028568;28;20341;-59
2022/03/04 02:51:33;;;;;;;17.30;9.55;;;;;;;-1.72;72.90;101098.28;5028103;28;20060;-59
2022/03/04 02:54:37;;;;;;;11.63;8.75;;;;;;;-1.72;73.70;101090.59;5027875;28;20473;-59
2022/03/04 02:57:45;;;;;;;15.05;9.45;;;;;;;-1.74;73.86;101094.84;5028494;28;20133;-59
2022/03/04 03:00:49;;;;;;;14.82;10.43;;;;;;;-1.69;73.75;101093.19;5027567;28;20084;-59
2022/03/04 03:03:52;;;;;;;13.15;9.18;;;;;;;-1.80;73.48;101093.94;5028312;28;20463;-59
2022/03/04 03:06:55;;;;;;;18.15;9.68;;;;;;;-1.88;73.80;101086.19;5027932;28;20068;-59
2022/03/04 03:09:59;;;;;;;16.98;10.80;;;;;;;-1.87;73.60;101087.91;5042577;28;20513;-59
2022/03/04 03:13:02;;;;;;;;;;;;;;;-1.93;73.59;101083.59;5048798;28;20103;-59
2022/03/04 03:16:05;;;;;;;15.13;9.88;;;;;;;-1.97;74.19;101092.09;5047465;28;19923;-59
2022/03/04 03:19:09;;;;;;;;;;;;;;;-1.87;73.75;101085.34;5048542;28;20098;-60
2022/03/04 03:22:14;;;;;;;12.98;8.73;;;;;;;-1.91;73.88;101088.75;5048707;28;20306;-59
2022/03/04 03:25:17;;;;;;;14.55;10.00;;;;;;;-1.92;73.80;101087.00;5047373;28;20095;-59
2022/03/04 03:28:20;;;;;;;14.07;9.63;;;;;;;-1.94;73.51;101092.13;5048765;28;20055;-59
2022/03/04 03:31:24;;;;;;;13.68;9.05;;;;;;;-2.00;74.39;101101.47;5049140;28;20414;-59
2022/03/04 03:34:27;;;;;;;12.73;8.77;;;;;;;-1.98;74.11;101097.19;4700152;28;10000437;-59
2022/03/04 03:37:31;;;;;;;12.43;9.50;;;;;;;-2.11;74.00;101094.56;5048583;28;20103;-59
2022/03/04 03:40:34;;;;;;;13.30;10.50;;;;;;;-2.12;74.23;101103.06;5038983;28;20186;-59
2022/03/04 03:43:38;;;;;;;14.55;10.98;;;;;;;-2.18;74.60;101103.00;5030144;28;20052;-59
2022/03/04 03:46:41;;;;;;;14.55;10.32;;;;;;;-2.09;74.55;101097.13;5031301;28;20035;-59
2022/03/04 03:49:44;;;;;;;15.52;10.15;;;;;;;-2.08;73.76;101100.53;5030617;28;20049;-59
2022/03/04 03:52:48;;;;;;;13.90;10.32;;;;;;;-2.23;74.19;101099.56;5030439;28;20064;-59
2022/03/04 03:55:51;;;;;;;15.48;10.13;;;;;;;-2.21;74.37;101092.72;5031327;28;20040;-59
2022/03/04 03:58:54;;;;;;;16.50;10.70;;;;;;;-2.18;73.86;101105.56;5031529;28;20060;-59
2022/03/04 04:02:02;;;;;;;15.35;10.52;;;;;;;-2.25;73.18;101106.38;5031300;28;20129;-59
2022/03/04 04:05:07;;;;;;;17.60;11.48;;;;;;;-2.27;73.91;101100.38;5031183;28;20099;-59
2022/03/04 04:08:10;;;;;;;18.20;10.65;;;;;;;-2.29;74.59;101101.22;5031804;28;20567;-59
2022/03/04 04:11:14;;;;;;;14.65;10.57;;;;;;;-2.22;73.72;101103.84;5031053;28;20061;-59
2022/03/04 04:14:17;;;;;;;12.90;9.93;;;;;;;-2.36;73.83;101106.28;5034170;28;20865;-59
2022/03/04 04:17:20;;;;;;;16.67;10.68;;;;;;;-2.33;73.81;101118.22;5034688;28;20100;-58
2022/03/04 04:20:23;;;;;;;14.80;10.52;;;;;;;-2.35;73.69;101120.78;5034436;28;20665;-59
2022/03/04 04:23:26;;;;;;;14.85;11.20;;;;;;;-2.31;74.13;101121.69;5034788;28;20128;-59
2022/03/04 04:26:30;;;;;;;;;;;;;;;-2.34;74.13;101124.22;5034926;28;20032;-59
2022/03/04 04:29:33;;;;;;;14.95;10.48;;;;;;;-2.27;73.68;101127.69;5034475;28;20016;-58
2022/03/04 04:32:36;;;;;;;15.68;10.85;;;;;;;-2.40;73.92;101134.38;5034335;28;20051;-59
2022/03/04 04:35:39;;;;;;;15.75;11.13;;;;;;;-2.37;73.44;101135.28;5034188;28;20052;-58
2022/03/04 04:38:43;;;;;;;16.48;11.35;;;;;;;-2.31;72.30;101137.03;5034883;28;20103;-58
2022/03/04 04:41:46;;;;;;;17.77;11.55;;;;;;;-2.29;72.47;101125.13;5034341;28;20737;-59
2022/03/04 04:44:49;;;;;;;18.30;11.52;;;;;;;-2.37;72.39;101136.97;5033408;28;20406;-59
2022/03/04 04:47:53;;;;;;;16.08;10.73;;;;;;;-2.43;72.85;101142.03;5033651;28;20469;-59
2022/03/04 04:50:59;;;;;;;17.13;10.82;;;;;;;-2.47;73.04;101145.41;5033461;28;20121;-58
2022/03/04 04:54:02;;;;;;;15.40;10.93;;;;;;;-2.50;73.61;101136.00;5033998;28;20099;-58
2022/03/04 04:57:05;;;;;;;14.57;10.95;;;;;;;-2.45;72.76;101138.63;5033977;28;20044;-59
2022/03/04 05:00:09;;;;;;;17.48;11.38;;;;;;;-2.62;73.63;101138.41;5033819;28;20634;-59
2022/03/04 05:03:13;;;;;;;16.02;10.85;;;;;;;-2.60;74.46;101145.28;5039307;28;20163;-59
2022/03/04 05:06:17;;;;;;;21.35;12.02;;;;;;;-2.66;73.88;101147.75;5053635;28;20040;-59
2022/03/04 05:09:20;;;;;;;18.83;12.73;;;;;;;-2.67;74.37;101153.72;5053699;28;20090;-59
2022/03/04 05:12:23;;;;;;;17.35;11.35;;;;;;;-2.74;74.58;101156.19;5050174;28;20099;-58
2022/03/04 05:15:27;;;;;;;17.08;12.00;;;;;;;-2.78;75.32;101160.41;5050237;28;20052;-59
2022/03/04 05:18:31;;;;;;;14.70;11.68;;;;;;;-2.68;74.77;101161.38;5049286;28;20098;-62
2022/03/04 05:21:34;;;;;;;15.20;10.38;;;;;;;-2.61;74.45;101152.94;5049494;28;20132;-64
2022/03/04 05:24:38;;;;;;;15.30;11.45;;;;;;;-2.59;73.93;101151.25;5048617;28;20044;-59
2022/03/04 05:27:41;;;;;;;17.63;11.93;;;;;;;-2.61;73.81;101153.81;5048765;28;20043;-59
2022/03/04 05:30:44;;;;;;;16.15;11.55;;;;;;;-2.82;72.99;101158.66;5049294;28;20047;-59
2022/03/04 05:33:48;;;;;;;15.05;10.25;;;;;;;-2.81;73.91;101150.13;5048724;28;20052;-59
2022/03/04 05:36:51;;;;;;;;;;;;;;;-2.68;73.26;101141.78;5048329;28;20110;-59
2022/03/04 05:39:54;;;;;;;18.00;12.02;;;;;;;-2.76;72.89;101143.38;5029067;28;19920;-59
2022/03/04 05:42:57;;;;;;;18.17;12.07;;;;;;;-2.72;73.51;101145.13;5028816;28;20052;-59
2022/03/04 05:46:01;;;;;;;19.35;11.68;;;;;;;-2.68;73.73;101153.69;5029783;28;20049;-59
2022/03/04 05:49:05;;;;;;;16.88;11.38;;;;;;;-2.81;74.23;101150.13;5029124;28;20052;-59
2022/03/04 05:52:08;;;;;;;18.30;12.45;;;;;;;-2.74;73.76;101154.50;5031892;28;20043;-59
2022/03/04 05:55:11;;;;;;;20.90;13.80;;;;;;;-2.76;73.79;101157.88;5049451;28;20060;-59
2022/03/04 05:58:15;;;;;;;20.88;14.00;;;;;;;-2.76;73.41;101155.31;5049868;28;20457;-59
2022/03/04 06:01:18;;;;;;;;;;;;;;;-2.78;73.00;101170.66;5060681;28;20152;-59
2022/03/04 06:04:21;;;;;;;23.83;14.27;;;;;;;-2.76;73.53;101163.00;5048206;28;19920;-59
2022/03/04 06:07:25;;;;;;;17.80;12.50;;;;;;;-2.78;73.71;101180.88;5037896;28;20048;-59
2022/03/04 06:10:28;;;;;;;16.35;11.80;;;;;;;-2.76;74.10;101188.59;5047538;28;20047;-59
2022/03/04 06:13:35;;;;;;;17.42;11.85;;;;;;;-2.76;74.48;101186.88;5048410;28;20453;-59
2022/03/04 06:16:39;;;;;;;17.15;12.02;;;;;;;-2.81;74.21;101201.31;5049015;28;20048;-59
2022/03/04 06:19:44;;;;;;;16.83;11.07;;;;;;;-2.74;73.78;101198.03;5047713;28;20164;-60
2022/03/04 06:22:47;;;;;;;17.48;12.05;;;;;;;-2.78;74.20;101206.47;5027440;28;20060;-59
2022/03/04 06:25:51;;;;;;;18.65;12.50;;;;;;;-2.74;74.17;101203.13;5034461;28;20082;-57
2022/03/04 06:28:54;;;;;;;27.42;17.48;;;;;;;-2.72;73.25;101211.69;5046389;28;20055;-57
2022/03/04 06:31:58;;;;;;;20.85;14.13;;;;;;;-2.77;74.12;101208.22;5046603;28;20052;-58
2022/03/04 06:35:01;;;;;;;29.20;16.65;;;;;;;-2.90;74.33;101224.25;5045913;28;20039;-59
2022/03/04 06:38:05;;;;;;;19.65;12.38;;;;;;;-2.83;74.42;101229.47;5027474;28;20095;-59
2022/03/04 06:41:13;;;;;;;16.38;11.88;;;;;;;-2.80;74.53;101228.66;5027803;28;20044;-59
2022/03/04 06:44:16;;;;;;;18.23;11.80;;;;;;;-2.78;75.00;101231.22;5028288;28;20470;-59
2022/03/04 06:47:20;;;;;;;16.48;12.13;;;;;;;-2.76;75.35;101239.78;5028036;28;20037;-60
2022/03/04 06:50:23;;;;;;;17.98;12.15;;;;;;;-2.77;74.83;101235.53;5038545;28;20063;-60
2022/03/04 06:53:27;;;;;;;18.15;12.15;;;;;;;-2.78;75.35;101238.91;5045849;28;20124;-60
2022/03/04 06:56:30;;;;;;;16.90;12.32;;;;;;;-2.86;75.73;101241.34;5032657;28;20472;-59
2022/03/04 06:59:33;;;;;;;;;;;;;;;-2.84;75.61;101247.34;5027514;28;20107;-59
2022/03/04 07:02:37;;;;;;;20.15;13.13;;;;;;;-2.82;75.33;101254.22;5025773;28;19924;-59
2022/03/04 07:05:41;;;;;;;18.63;12.33;;;;;;;-2.82;75.54;101250.78;5026667;28;20199;-59
2022/03/04 07:08:44;;;;;;;;;;;;;;;-2.76;75.13;101261.13;5028293;28;20132;-59
2022/03/04 07:11:48;;;;;;;15.93;10.93;;;;;;;-2.67;74.75;101258.69;5025996;28;20167;-60
2022/03/04 07:14:51;;;;;;;17.88;12.80;;;;;;;-2.53;75.03;101268.25;5027215;28;20068;-59
2022/03/04 07:17:55;;;;;;;19.53;12.93;;;;;;;-2.53;74.85;101268.25;5030600;28;20075;-59
2022/03/04 07:20:59;;;;;;;18.58;12.48;;;;;;;-2.59;75.17;101275.00;5046861;28;20327;-59
2022/03/04 07:24:04;;;;;;;17.35;12.52;;;;;;;-2.49;74.68;101275.13;5046736;28;20052;-59
2022/03/04 07:27:07;;;;;;;18.23;12.30;;;;;;;-2.39;74.71;101267.59;5046186;28;20132;-59
2022/03/04 07:30:12;;;;;;;;;;;;;;;-2.31;74.85;101277.94;5047359;28;20044;-59
2022/03/04 07:33:15;;;;;;;20.38;13.15;;;;;;;-2.28;74.87;101274.53;5046163;28;20333;-59
2022/03/04 07:36:19;;;;;;;21.52;13.07;;;;;;;-2.15;74.75;101272.13;5045918;28;20048;-57
2022/03/04 07:39:22;;;;;;;20.63;14.57;;;;;;;-2.14;74.58;101262.75;5046861;28;20047;-57
2022/03/04 07:42:25;;;;;;;25.70;17.17;;;;;;;-2.07;75.36;101269.69;5044556;28;20090;-57
2022/03/04 07:45:28;;;;;;;22.95;15.43;;;;;;;-1.88;74.73;101257.94;5044977;28;20128;-58
2022/03/04 07:48:32;;;;;;;19.75;14.55;;;;;;;-1.79;74.63;101260.56;5047224;28;20060;-58
2022/03/04 07:51:35;;;;;;;20.50;14.50;;;;;;;-1.63;73.83;101274.41;5050279;28;20110;-58
2022/03/04 07:54:38;;;;;;;21.85;14.93;;;;;;;-1.56;74.01;101265.06;5049844;28;20055;-58
2022/03/04 07:57:43;;;;;;;22.45;16.05;;;;;;;-1.46;73.94;101278.00;5049118;28;20076;-58
2022/03/04 08:00:47;;;;;;;21.73;14.68;;;;;;;-1.38;74.27;101272.06;5048718;28;20596;-58
2022/03/04 08:03:50;;;;;;;20.63;15.68;;;;;;;-1.29;74.06;101267.88;5031031;28;20056;-58
2022/03/04 08:06:53;;;;;;;23.65;16.20;;;;;;;-1.23;74.17;101273.06;5028400;28;20079;-58
2022/03/04 08:09:57;;;;;;;;;;;;;;;-1.12;74.28;101264.56;5032054;28;20071;-59
2022/03/04 08:13:00;;;;;;;33.38;20.35;;;;;;;-1.02;74.31;101267.22;5049011;28;19928;-58
2022/03/04 08:16:03;;;;;;;25.50;17.08;;;;;;;-0.95;74.32;101278.41;5049952;28;20263;-58
2022/03/04 08:19:07;;;;;;;41.35;26.13;;;;;;;-0.83;73.99;101283.63;5051536;28;20043;-58
2022/03/04 08:22:10;;;;;;;;;;;;;;;-0.72;74.46;101283.69;5049827;28;20055;-58
2022/03/04 08:25:13;;;;;;;23.08;16.55;;;;;;;-0.69;74.82;101286.28;5048914;28;20354;-59
2022/03/04 08:28:17;;;;;;;26.42;18.55;;;;;;;-0.62;74.79;101287.16;5050136;28;20052;-58
2022/03/04 08:31:20;;;;;;;25.73;18.23;;;;;;;-0.54;74.93;101285.50;5050813;28;20040;-58
2022/03/04 08:34:23;;;;;;;25.50;18.65;;;;;;;-0.57;76.77;101282.94;5047892;28;20339;-58
2022/03/04 08:37:26;;;;;;;29.60;19.70;;;;;;;-0.41;76.02;101282.16;5049170;28;20048;-58
2022/03/04 08:40:30;;;;;;;29.40;19.98;;;;;;;-0.11;75.07;101275.41;5049131;28;20044;-61
2022/03/04 08:43:34;;;;;;;31.90;22.30;;;;;;;0.13;74.76;101264.34;5049221;28;20480;-59
2022/03/04 08:46:38;;;;;;;28.85;20.90;;;;;;;0.29;74.06;101270.34;5049529;28;20040;-58
2022/03/04 08:49:41;;;;;;;31.15;20.55;;;;;;;0.39;73.76;101284.97;5030217;28;20084;-58
2022/03/04 08:52:45;;;;;;;28.67;21.13;;;;;;;0.52;73.42;101268.69;5029718;28;20237;-58
2022/03/04 08:55:50;;;;;;;;;;;;;;;0.60;73.53;101269.53;5029602;28;20131;-58
2022/03/04 08:58:54;;;;;;;29.10;21.65;;;;;;;0.73;73.76;101266.97;5029740;28;20020;-58
2022/03/04 09:01:58;;;;;;;31.17;22.25;;;;;;;0.85;72.67;101272.13;5048806;28;20045;-58
2022/03/04 09:05:01;;;;;;;29.58;21.15;;;;;;;0.88;72.39;101272.97;5048648;28;20044;-58
2022/03/04 09:08:04;;;;;;;30.33;20.98;;;;;;;1.03;72.21;101273.84;5049290;28;20560;-58
2022/03/04 09:11:08;;;;;;;29.38;22.13;;;;;;;1.14;71.49;101267.81;5046971;28;20239;-58
2022/03/04 09:14:11;;;;;;;32.35;23.30;;;;;;;1.25;71.24;101267.81;5047780;28;20059;-58
2022/03/04 09:17:14;;;;;;;35.95;21.73;;;;;;;1.36;70.85;101260.88;5048105;28;20059;-58
2022/03/04 09:20:19;;;;;;;36.70;21.75;;;;;;;1.47;70.86;101247.09;5029002;28;20600;-58
2022/03/04 09:23:23;;;;;;;30.65;21.58;;;;;;;1.52;69.99;101251.38;5029152;28;20119;-58
2022/03/04 09:26:27;;;;;;;30.48;21.77;;;;;;;1.62;69.50;101258.22;5029598;28;20090;-58
2022/03/04 09:29:30;;;;;;;30.38;22.40;;;;;;;1.69;69.80;101253.03;5036544;28;20039;-58
2022/03/04 09:32:34;;;;;;;28.85;21.63;;;;;;;1.79;69.87;101254.75;5048227;28;20117;-58
2022/03/04 09:35:38;;;;;;;33.42;22.77;;;;;;;1.89;69.15;101246.09;5036122;28;20040;-58
2022/03/04 09:38:42;;;;;;;27.10;21.05;;;;;;;1.97;68.69;101240.88;5049657;28;20468;-58
2022/03/04 09:41:46;;;;;;;30.83;22.67;;;;;;;2.07;69.31;101243.41;5049797;28;20063;-58
2022/03/04 09:44:50;;;;;;;33.63;22.65;;;;;;;2.21;69.05;101242.47;5048502;28;20473;-58
2022/03/04 09:47:53;;;;;;;32.03;23.23;;;;;;;2.27;67.49;101235.56;5050139;28;20541;-58
2022/03/04 09:50:56;;;;;;;30.48;23.02;;;;;;;2.33;67.64;101244.97;5051723;28;20059;-58
2022/03/04 09:54:00;;;;;;;;;;;;;;;2.48;67.22;101241.41;5052325;28;20132;-58
2022/03/04 09:57:05;;;;;;;35.72;23.13;;;;;;;2.51;66.13;101239.66;5050224;28;20402;-58
2022/03/04 10:00:54;;;;;;;29.88;21.85;;;;;;;2.61;65.95;101234.44;1316122;26;20065;-72
2022/03/04 10:03:58;;;;;;;36.83;21.63;;;;;;;2.72;66.81;101236.06;5001111;28;20392;-71
2022/03/04 10:17:02;;;;;;;30.70;22.98;;;;;;;3.09;65.00;101209.00;4992060;28;20044;-72
2022/03/04 10:20:09;;;;;;;29.13;22.30;;;;;;;3.12;63.95;101219.31;4994180;28;20121;-72
2022/03/04 10:23:14;;;;;;;32.67;23.17;;;;;;;3.26;63.82;101217.47;4993285;28;20045;-72
2022/03/04 10:26:18;;;;;;;30.90;22.88;;;;;;;3.33;64.29;101215.66;4993909;28;20052;-72
2022/03/04 10:29:24;;;;;;;28.58;21.90;;;;;;;3.42;64.47;101216.41;5009386;28;20400;-72
2022/03/04 10:32:28;;;;;;;33.67;23.88;;;;;;;3.56;62.86;101223.13;5012709;28;20409;-71
2022/03/04 10:35:31;;;;;;;32.47;22.05;;;;;;;3.65;62.38;101216.13;5008145;28;20564;-72
2022/03/04 10:38:36;;;;;;;28.65;21.50;;;;;;;3.73;62.65;101213.41;4990886;28;20421;-74
2022/03/04 10:42:06;;;;;;;30.55;24.08;;;;;;;3.73;61.97;101214.31;4998850;28;20052;-72
2022/03/04 10:45:36;;;;;;;29.58;22.88;;;;;;;3.81;62.12;101219.38;4989933;28;20088;-72
2022/03/04 10:48:51;;;;;;;29.50;22.55;;;;;;;3.86;61.57;101215.00;4989064;28;20081;-71
2022/03/04 10:52:09;;;;;;;29.85;21.70;;;;;;;4.04;60.83;101208.69;4992741;28;20053;-73
2022/03/04 10:55:12;;;;;;;32.13;23.00;;;;;;;4.16;60.89;101208.53;5000655;28;20616;-72
2022/03/04 10:58:17;;;;;;;28.83;22.27;;;;;;;4.32;60.90;101200.53;5012320;28;20107;-73
2022/03/04 11:01:20;;;;;;;37.50;23.27;;;;;;;4.44;60.60;101192.56;5011491;28;20095;-72
2022/03/04 11:04:24;;;;;;;28.95;23.08;;;;;;;4.50;60.11;101196.78;5011107;28;20049;-72
2022/03/04 11:07:28;;;;;;;33.50;24.08;;;;;;;4.54;58.21;101199.31;5012185;28;20049;-72
2022/03/04 11:10:32;;;;;;;29.00;22.75;;;;;;;4.53;58.94;101191.53;5011242;28;20053;-72
2022/03/04 11:13:35;;;;;;;;;;;;;;;4.58;59.13;101189.75;5012130;28;20448;-72
2022/03/04 11:16:40;;;;;;;31.05;23.83;;;;;;;4.72;58.70;101184.31;5011352;28;19936;-72
2022/03/04 11:19:44;;;;;;;33.45;23.35;;;;;;;4.87;58.12;101186.63;5012156;28;20060;-72
2022/03/04 11:22:52;;;;;;;34.35;24.45;;;;;;;4.97;58.89;101177.81;5014660;28;20107;-72
2022/03/04 11:26:03;;;;;;;33.30;25.10;;;;;;;5.08;57.46;101180.22;5015720;28;20045;-72
2022/03/04 11:29:06;;;;;;;32.30;25.33;;;;;;;5.16;57.38;101173.13;5015100;28;20092;-73
2022/03/04 11:32:09;;;;;;;;;;;;;;;5.33;57.61;101171.06;5016248;28;20057;-72
2022/03/04 11:35:56;;;;;;;33.05;25.08;;;;;;;5.43;56.67;101160.50;5015871;28;20382;-72
2022/03/04 11:39:00;;;;;;;29.65;23.48;;;;;;;5.54;55.72;101163.72;5016107;28;20053;-73
2022/03/04 11:42:04;;;;;;;29.35;24.30;;;;;;;5.60;55.11;101163.59;5015710;28;20092;-72
2022/03/04 11:45:09;;;;;;;33.83;24.10;;;;;;;5.67;54.96;101159.13;5016282;28;20044;-72
2022/03/04 11:48:13;;;;;;;33.67;23.98;;;;;;;5.86;55.00;101169.94;5009223;28;20042;-73
2022/03/04 11:51:20;;;;;;;39.10;23.92;;;;;;;5.97;54.19;101160.22;5007771;28;20100;-72
2022/03/04 11:54:25;;;;;;;31.35;24.50;;;;;;;6.08;54.38;101165.16;5015275;28;20129;-72
2022/03/04 11:57:34;;;;;;;35.45;24.75;;;;;;;6.12;54.10;101157.25;5014140;28;20049;-73
2022/03/04 12:00:38;;;;;;;31.63;23.50;;;;;;;6.24;53.57;101154.34;5015698;28;20053;-73
2022/03/04 12:04:08;;;;;;;34.33;24.58;;;;;;;6.29;53.19;101149.06;5015142;28;20562;-73
2022/03/04 12:07:12;;;;;;;37.95;25.90;;;;;;;6.41;51.80;101146.13;5014134;28;20440;-72
2022/03/04 12:10:17;;;;;;;38.28;25.05;;;;;;;6.41;51.58;101145.28;5014815;28;20096;-72
2022/03/04 12:13:24;;;;;;;29.90;24.00;;;;;;;6.60;51.54;101140.47;5014635;28;20049;-73
2022/03/04 12:16:46;;;;;;;34.25;24.25;;;;;;;6.79;51.05;101138.25;5014656;28;20665;-72
2022/03/04 12:19:50;;;;;;;31.63;25.30;;;;;;;6.78;50.20;101131.34;5015214;28;20443;-73
2022/03/04 12:23:09;;;;;;;31.42;24.73;;;;;;;6.93;49.46;101133.56;5015480;28;20507;-72
2022/03/04 12:26:20;;;;;;;36.35;25.52;;;;;;;7.16;50.60;101119.91;5014322;28;20060;-72
2022/03/04 12:29:42;;;;;;;29.63;23.05;;;;;;;7.41;48.56;101133.06;5013527;28;20501;-73
2022/03/04 12:32:53;;;;;;;30.02;22.77;;;;;;;7.56;48.20;101124.78;5012493;28;20045;-73
2022/03/04 12:35:57;;;;;;;31.33;24.88;;;;;;;7.66;48.13;101117.56;5015003;28;20040;-73
2022/03/04 12:44:03;;;;;;;29.40;23.30;;;;;;;8.11;46.84;101114.41;5009954;28;20092;-73
2022/03/04 12:47:06;;;;;;;29.60;23.80;;;;;;;8.19;46.38;101106.31;5014309;28;20123;-73
2022/03/04 12:50:10;;;;;;;29.75;24.40;;;;;;;8.35;46.74;101113.56;5000757;28;20092;-73
2022/03/04 12:53:22;;;;;;;29.98;23.42;;;;;;;8.45;45.35;101108.91;4995444;28;20050;-73
2022/03/04 12:56:26;;;;;;;30.45;24.33;;;;;;;8.55;44.74;101099.91;4995918;28;20057;-76
2022/03/04 12:59:43;;;;;;;30.35;24.77;;;;;;;8.70;44.64;101098.50;4995737;28;20105;-72
2022/03/04 13:02:47;;;;;;;31.88;23.70;;;;;;;8.43;45.53;101095.13;4993435;28;20069;-73
2022/03/04 13:05:50;;;;;;;;;;;;;;;8.51;44.25;101093.06;4996491;28;20054;-73
2022/03/04 13:08:56;;;;;;;32.45;25.55;;;;;;;9.00;43.44;101090.50;4994164;28;19920;-73
2022/03/04 13:12:05;;;;;;;31.75;24.48;;;;;;;9.83;42.71;101082.94;4993727;28;20174;-73
2022/03/04 13:15:11;;;;;;;31.30;24.60;;;;;;;10.82;39.73;101075.28;4994508;28;20045;-73
2022/03/04 13:18:15;;;;;;;32.08;25.77;;;;;;;11.43;37.29;101070.78;4994632;28;20104;-72
2022/03/04 13:21:19;;;;;;;28.30;24.27;;;;;;;13.28;35.57;101064.03;4998476;28;20045;-73
2022/03/04 13:24:30;;;;;;;30.42;24.45;;;;;;;15.43;32.14;101062.66;5014459;28;20069;-73
2022/03/04 13:27:43;;;;;;;28.90;24.40;;;;;;;17.05;28.49;101057.97;5013846;28;20044;-73
2022/03/04 13:30:48;;;;;;;30.90;24.35;;;;;;;18.95;25.27;101054.34;5013493;28;20077;-73
2022/03/04 13:34:04;;;;;;;26.70;23.88;;;;;;;19.20;24.90;101050.59;5032860;28;20479;-73
2022/03/04 13:37:19;;;;;;;28.50;25.40;;;;;;;20.57;22.84;101048.94;5033960;28;20388;-73
2022/03/04 13:40:24;;;;;;;27.70;24.65;;;;;;;20.92;22.16;101042.38;5033686;28;20139;-73
2022/03/04 13:43:29;;;;;;;28.90;24.63;;;;;;;19.40;23.18;101044.53;4992123;28;20076;-73
2022/03/04 13:46:33;;;;;;;30.30;24.70;;;;;;;19.57;22.23;101048.47;4993591;28;20130;-73
2022/03/04 13:49:45;;;;;;;27.75;24.13;;;;;;;17.81;25.28;101039.22;4993820;28;20089;-73
2022/03/04 13:52:48;;;;;;;28.75;23.65;;;;;;;16.48;26.07;101041.63;5000860;28;20081;-73
2022/03/04 13:55:59;;;;;;;25.42;22.73;;;;;;;14.61;28.70;101040.56;5012386;28;20049;-72
2022/03/04 13:59:03;;;;;;;25.27;22.15;;;;;;;12.79;31.17;101041.25;5013786;28;20144;-73
2022/03/04 14:02:06;;;;;;;25.65;22.52;;;;;;;11.67;33.10;101037.31;5006456;28;20056;-73
2022/03/04 14:05:13;;;;;;;29.73;23.38;;;;;;;11.73;33.76;101032.63;5008745;28;20059;-73
2022/03/04 14:08:21;;;;;;;27.35;22.60;;;;;;;11.88;33.72;101036.31;5009988;28;20681;-74
2022/03/04 14:11:24;;;;;;;25.13;21.65;;;;;;;12.05;33.85;101036.31;5009026;28;20064;-74
2022/03/04 14:14:28;;;;;;;26.95;23.02;;;;;;;11.97;34.05;101035.03;5008583;28;20095;-73
2022/03/04 14:17:44;;;;;;;26.55;22.45;;;;;;;11.70;34.19;101030.16;5008669;28;20052;-74
2022/03/04 14:20:48;;;;;;;27.85;21.75;;;;;;;11.13;35.81;101030.25;5009584;28;20341;-73
2022/03/04 14:23:52;;;;;;;30.33;23.02;;;;;;;11.50;35.13;101025.91;5009963;28;20131;-74
2022/03/04 14:26:55;;;;;;;27.55;22.83;;;;;;;11.67;35.33;101022.44;5008169;28;20104;-74
2022/03/04 14:29:58;;;;;;;28.02;22.27;;;;;;;11.15;34.62;101025.78;5008548;28;20055;-73
2022/03/04 14:33:04;;;;;;;26.70;20.83;;;;;;;11.25;34.05;101031.44;5007881;28;20114;-73